Time;durP1;ratioP1;P1;durP2;ratioP2;P2;SDS_P1;SDS_P2;PMS_P1;PMS_P2;Temp;Humidity;BMP_temperature;BMP_pressure;BME280_temperature;BME280_humidity;BME280_pressure;Samples;Min_cycle;Max_cycle;Signal;HPM_P1;HPM_P2
2024/03/30 00:02:27;;;;;;;1.75;1.30;;;;;;;14.97;54.48;99674.03;4952793;28;114800;-83
2024/03/30 00:04:54;;;;;;;2.67;1.60;;;;;;;14.96;54.48;99666.16;4977193;28;114983;-82
2024/03/30 00:07:21;;;;;;;1.80;1.40;;;;;;;14.92;54.49;99657.56;4965561;28;123282;-86
2024/03/30 00:09:48;;;;;;;2.33;1.38;;;;;;;14.89;54.79;99657.78;4965372;28;123823;-82
2024/03/30 00:12:14;;;;;;;2.40;1.92;;;;;;;14.87;54.77;99667.75;4969141;28;114246;-81
2024/03/30 00:14:40;;;;;;;3.03;1.40;;;;;;;14.86;54.74;99665.19;4966056;28;113810;-83
2024/03/30 00:17:08;;;;;;;1.92;1.75;;;;;;;14.84;54.90;99662.66;4961891;28;122668;-82
2024/03/30 00:19:38;;;;;;;2.65;1.40;;;;;;;14.82;54.80;99664.59;4960069;28;122801;-84
2024/03/30 00:22:05;;;;;;;2.33;1.50;;;;;;;14.82;54.64;99679.75;4969174;28;113662;-82
2024/03/30 00:24:32;;;;;;;2.22;1.42;;;;;;;14.81;54.86;99667.41;4963279;28;113946;-82
2024/03/30 00:26:58;;;;;;;2.45;1.60;;;;;;;14.79;54.90;99671.03;4976679;28;124004;-83
2024/03/30 00:29:24;;;;;;;1.90;1.20;;;;;;;14.78;54.85;99663.16;4950762;28;122906;-82
2024/03/30 00:31:50;;;;;;;1.90;1.42;;;;;;;14.78;54.82;99668.50;4961931;28;113979;-82
2024/03/30 00:34:17;;;;;;;2.38;1.65;;;;;;;14.78;54.88;99663.16;4962328;28;113235;-85
2024/03/30 00:36:43;;;;;;;5.57;1.60;;;;;;;14.77;54.97;99656.16;4959199;28;123928;-90
2024/03/30 00:39:11;;;;;;;1.90;1.20;;;;;;;14.76;55.13;99638.44;4980121;28;123131;-85
2024/03/30 00:41:39;;;;;;;2.15;1.60;;;;;;;14.74;54.90;99624.41;4986974;28;113771;-84
2024/03/30 00:44:05;;;;;;;2.50;1.35;;;;;;;14.73;54.98;99617.38;4992318;28;113571;-84
2024/03/30 00:46:32;;;;;;;1.42;1.33;;;;;;;14.72;54.93;99607.69;4964736;28;123425;-83
2024/03/30 00:48:59;;;;;;;2.35;1.55;;;;;;;14.71;55.09;99606.00;4964171;28;123149;-85
2024/03/30 00:51:25;;;;;;;3.10;1.65;;;;;;;14.71;55.06;99608.66;4966510;28;114617;-83
2024/03/30 00:53:52;;;;;;;3.28;1.40;;;;;;;14.71;54.97;99604.19;4975021;28;113561;-83
2024/03/30 00:56:18;;;;;;;1.88;1.30;;;;;;;14.71;54.90;99598.00;4955926;28;122594;-83
2024/03/30 00:58:44;;;;;;;1.88;1.33;;;;;;;14.71;54.88;99592.66;4966610;28;122589;-85
2024/03/30 01:01:10;;;;;;;3.17;2.20;;;;;;;14.70;54.90;99580.34;4969876;28;114033;-84
2024/03/30 01:03:37;;;;;;;2.80;1.40;;;;;;;14.68;54.71;99582.28;4963369;28;111037;-85
2024/03/30 01:06:03;;;;;;;2.67;1.48;;;;;;;14.67;54.69;99585.91;4967572;28;122997;-85
2024/03/30 01:08:29;;;;;;;1.70;1.40;;;;;;;14.63;54.66;99568.47;4970451;28;122318;-83
2024/03/30 01:10:59;;;;;;;2.30;1.80;;;;;;;14.59;54.96;99568.72;4967893;28;114576;-84
2024/03/30 01:13:26;;;;;;;1.92;1.40;;;;;;;14.56;54.78;99563.63;4950973;28;113050;-83
2024/03/30 01:15:52;;;;;;;2.38;1.88;;;;;;;14.54;54.93;99559.38;4968202;28;123085;-83
2024/03/30 01:18:20;;;;;;;2.65;2.17;;;;;;;14.51;54.83;99571.16;4974000;28;122880;-84
2024/03/30 01:20:50;;;;;;;3.25;1.60;;;;;;;14.49;55.13;99573.09;4971649;28;112803;-83
2024/03/30 01:23:20;;;;;;;1.88;1.40;;;;;;;14.45;55.08;99566.34;4953294;28;113243;-88
2024/03/30 01:25:49;;;;;;;2.35;1.45;;;;;;;14.43;55.02;99572.72;4967072;28;124019;-83
2024/03/30 01:28:16;;;;;;;2.88;1.65;;;;;;;14.39;55.11;99566.81;4967330;28;122151;-85
2024/03/30 01:30:43;;;;;;;4.10;1.58;;;;;;;14.35;55.16;99565.38;4974301;28;114509;-83
2024/03/30 01:33:09;;;;;;;2.63;1.38;;;;;;;14.33;54.93;99567.31;4969182;28;112316;-83
2024/03/30 01:35:35;;;;;;;4.28;2.03;;;;;;;14.30;55.13;99572.91;4962891;28;124536;-83
2024/03/30 01:38:02;;;;;;;2.33;1.90;;;;;;;14.28;55.37;99574.81;4965649;28;124145;-83
2024/03/30 01:40:32;;;;;;;2.10;1.90;;;;;;;14.25;55.51;99580.41;4966893;28;115231;-84
2024/03/30 01:43:03;;;;;;;2.30;1.65;;;;;;;14.23;55.37;99574.38;4968319;28;115023;-84
2024/03/30 01:45:34;;;;;;;2.63;2.20;;;;;;;14.20;55.65;99573.66;4966668;28;123595;-84
2024/03/30 01:48:03;;;;;;;2.30;2.03;;;;;;;14.23;55.76;99571.72;4963294;28;123406;-83
2024/03/30 01:50:31;;;;;;;3.22;2.13;;;;;;;14.21;55.90;99564.69;4985060;28;114197;-83
2024/03/30 01:53:01;;;;;;;2.15;1.83;;;;;;;14.23;55.84;99556.56;4972081;28;112946;-84
2024/03/30 01:55:28;;;;;;;2.47;2.15;;;;;;;14.24;56.11;99566.28;4950859;28;124128;-84
2024/03/30 01:57:58;;;;;;;3.00;2.10;;;;;;;14.25;55.95;99553.78;4947350;28;123234;-83
2024/03/30 02:00:24;;;;;;;2.63;2.33;;;;;;;14.27;55.86;99551.84;4971955;28;112813;-83
2024/03/30 02:02:59;;;;;;;2.60;1.92;;;;;;;14.27;55.85;99538.53;4975935;28;115106;-84
2024/03/30 02:05:27;;;;;;;3.60;2.45;;;;;;;14.27;55.97;99534.03;4971020;28;123250;-84
2024/03/30 02:08:00;;;;;;;2.95;2.42;;;;;;;14.25;56.20;99532.47;4966724;28;125001;-83
2024/03/30 02:10:27;;;;;;;4.25;2.40;;;;;;;14.23;56.05;99548.59;4967812;28;113552;-84
2024/03/30 02:12:54;;;;;;;5.20;2.47;;;;;;;14.21;56.25;99556.69;4948593;28;112343;-83
2024/03/30 02:15:20;;;;;;;3.42;2.78;;;;;;;14.23;56.27;99556.56;4968598;28;123938;-84
2024/03/30 02:17:47;;;;;;;3.13;2.40;;;;;;;14.21;56.38;99559.34;4978858;28;123771;-84
2024/03/30 02:20:13;;;;;;;3.28;2.38;;;;;;;14.21;56.26;99554.03;4970915;28;113718;-83
2024/03/30 02:22:48;;;;;;;3.45;2.40;;;;;;;14.23;56.24;99550.41;4951916;28;112961;-84
2024/03/30 02:25:15;;;;;;;2.72;2.35;;;;;;;14.21;56.26;99542.53;4944250;28;124055;-83
2024/03/30 02:27:41;;;;;;;4.68;2.65;;;;;;;14.23;56.18;99539.75;4964905;28;123407;-83
2024/03/30 02:30:10;;;;;;;3.75;2.90;;;;;;;14.19;56.50;99540.00;4961910;28;113755;-83
2024/03/30 02:32:37;;;;;;;3.15;2.22;;;;;;;14.17;56.43;99552.59;4963249;28;113282;-84
2024/03/30 02:35:03;;;;;;;6.15;3.10;;;;;;;14.15;56.60;99533.22;4971029;28;123993;-84
2024/03/30 02:37:30;;;;;;;3.78;2.90;;;;;;;14.13;56.77;99537.84;4961578;28;123980;-84
2024/03/30 02:39:56;;;;;;;3.20;2.25;;;;;;;14.10;56.53;99535.41;4969686;28;113719;-83
2024/03/30 02:42:22;;;;;;;3.72;2.90;;;;;;;14.09;56.80;99539.06;4975545;28;113698;-83
2024/03/30 02:44:48;;;;;;;3.95;2.90;;;;;;;14.07;57.02;99541.00;4969450;28;123372;-84
2024/03/30 02:47:14;;;;;;;2.75;2.40;;;;;;;14.07;56.80;99541.00;4973111;28;123531;-84
2024/03/30 02:49:40;;;;;;;5.38;2.92;;;;;;;14.05;57.09;99542.91;4956171;28;113762;-83
2024/03/30 02:52:07;;;;;;;3.13;2.30;;;;;;;14.03;56.75;99544.84;4957413;28;112955;-84
2024/03/30 02:54:33;;;;;;;5.13;2.55;;;;;;;14.01;56.86;99541.47;4966435;28;122972;-87
2024/03/30 02:56:59;;;;;;;3.75;3.00;;;;;;;14.00;57.07;99545.13;4956499;28;124634;-84
2024/03/30 02:59:25;;;;;;;6.07;2.70;;;;;;;13.98;57.13;99539.06;4956644;28;113725;-83
2024/03/30 03:01:51;;;;;;;3.70;2.78;;;;;;;13.97;56.99;99524.06;4976293;28;113533;-84
2024/03/30 03:04:17;;;;;;;3.35;3.05;;;;;;;13.94;57.27;99541.13;4961631;28;123212;-84
2024/03/30 03:06:44;;;;;;;4.70;3.45;;;;;;;13.94;57.33;99542.97;4973479;28;123750;-83
2024/03/30 03:09:10;;;;;;;5.00;3.50;;;;;;;13.94;57.74;99521.66;4972746;28;113969;-83
2024/03/30 03:11:37;;;;;;;4.43;3.78;;;;;;;13.93;57.51;99527.94;4977410;28;113409;-83
2024/03/30 03:14:04;;;;;;;5.72;2.67;;;;;;;13.90;57.36;99522.84;4962077;28;124029;-83
2024/03/30 03:16:30;;;;;;;5.63;3.70;;;;;;;13.85;57.70;99525.06;4977600;28;124129;-83
2024/03/30 03:18:56;;;;;;;3.90;3.03;;;;;;;13.81;57.60;99525.28;4956775;28;114208;-83
2024/03/30 03:21:22;;;;;;;3.53;2.47;;;;;;;13.80;57.70;99518.25;4973175;28;113898;-85
2024/03/30 03:23:51;;;;;;;3.40;2.78;;;;;;;13.80;57.76;99510.28;4967638;28;123247;-84
2024/03/30 03:26:17;;;;;;;4.35;3.35;;;;;;;13.77;57.76;99518.53;4955123;28;122270;-82
2024/03/30 03:28:43;;;;;;;6.30;3.55;;;;;;;13.75;58.03;99517.81;4949640;28;112638;-84
2024/03/30 03:31:09;;;;;;;3.65;2.90;;;;;;;13.75;57.80;99514.28;4975452;28;112327;-83
2024/03/30 03:33:36;;;;;;;3.53;2.67;;;;;;;13.74;57.92;99524.09;4954676;28;123296;-86
2024/03/30 03:36:03;;;;;;;3.05;2.60;;;;;;;13.74;58.06;99524.09;4972811;28;122916;-81
2024/03/30 03:38:29;;;;;;;3.90;3.20;;;;;;;13.74;58.28;99524.09;4957880;28;114246;-83
2024/03/30 03:40:55;;;;;;;4.68;3.92;;;;;;;13.75;58.18;99509.81;4982144;28;114546;-83
2024/03/30 03:43:21;;;;;;;4.78;3.45;;;;;;;13.76;58.22;99511.50;4968097;28;123144;-83
2024/03/30 03:45:48;;;;;;;3.00;2.70;;;;;;;13.73;58.22;99527.72;4957541;28;123541;-81
2024/03/30 03:48:14;;;;;;;5.18;3.38;;;;;;;13.74;58.44;99529.41;4959886;28;112305;-83
2024/03/30 03:50:41;;;;;;;5.18;3.35;;;;;;;13.76;58.50;99516.81;4957521;28;112948;-83
2024/03/30 03:53:08;;;;;;;3.55;3.25;;;;;;;13.76;58.22;99516.81;4951466;28;120627;-84
2024/03/30 03:55:35;;;;;;;4.63;3.42;;;;;;;13.74;58.69;99518.75;4974008;28;124166;-84
2024/03/30 03:58:02;;;;;;;5.50;3.83;;;;;;;13.74;58.52;99516.09;4987770;28;113667;-84
2024/03/30 04:00:28;;;;;;;3.85;3.33;;;;;;;13.73;58.42;99517.09;4990675;28;114013;-84
2024/03/30 04:02:54;;;;;;;5.05;3.58;;;;;;;13.74;58.58;99510.78;4991364;28;122463;-87
2024/03/30 04:05:21;;;;;;;3.92;2.40;;;;;;;13.72;58.47;99507.41;4984753;28;123460;-86
2024/03/30 04:07:47;;;;;;;3.55;2.78;;;;;;;13.72;58.35;99510.06;4964716;28;114772;-83
2024/03/30 04:10:15;;;;;;;5.53;3.63;;;;;;;13.75;58.67;99507.16;4973342;28;113170;-83
2024/03/30 04:12:41;;;;;;;4.30;3.70;;;;;;;13.75;58.55;99504.50;4970035;28;123014;-83
2024/03/30 04:15:08;;;;;;;3.17;2.50;;;;;;;13.75;58.64;99499.19;4968069;28;122830;-83
2024/03/30 04:17:34;;;;;;;3.95;2.65;;;;;;;13.78;58.48;99490.09;4963836;28;113815;-81
2024/03/30 04:20:01;;;;;;;5.03;3.90;;;;;;;13.76;58.54;99484.88;4970587;28;112018;-83
2024/03/30 04:22:27;;;;;;;11.70;3.63;;;;;;;13.75;58.77;99488.53;4975169;28;122999;-83
2024/03/30 04:24:53;;;;;;;4.65;2.83;;;;;;;13.73;58.65;99485.16;4945668;28;122108;-82
2024/03/30 04:27:20;;;;;;;3.63;3.05;;;;;;;13.71;58.75;99492.41;4966225;28;113708;-86
2024/03/30 04:29:46;;;;;;;4.30;3.35;;;;;;;13.71;58.82;99487.09;4995731;27;113588;-86
2024/03/30 04:32:12;;;;;;;3.90;2.95;;;;;;;13.71;58.77;99486.22;4996232;28;122293;-88
2024/03/30 04:34:40;;;;;;;9.50;3.67;;;;;;;13.72;58.82;99488.78;4979345;28;126255;-83
2024/03/30 04:37:06;;;;;;;3.88;3.05;;;;;;;13.73;58.80;99485.16;4953981;28;113296;-85
2024/03/30 04:39:33;;;;;;;3.40;3.08;;;;;;;13.74;58.81;99483.34;4973960;28;114129;-82
2024/03/30 04:41:59;;;;;;;4.78;3.83;;;;;;;13.75;58.78;99483.22;4956240;28;123029;-86
2024/03/30 04:44:26;;;;;;;4.97;4.05;;;;;;;13.76;58.97;99474.25;4971110;28;124292;-83
2024/03/30 04:46:52;;;;;;;3.83;2.95;;;;;;;13.75;59.07;99477.88;4975738;28;113529;-82
2024/03/30 04:49:18;;;;;;;4.35;3.50;;;;;;;13.75;58.84;99471.69;4951367;28;115388;-83
2024/03/30 04:51:44;;;;;;;3.97;2.90;;;;;;;13.71;58.93;99464.94;4975619;28;123721;-83
2024/03/30 04:54:10;;;;;;;4.60;3.67;;;;;;;13.70;59.00;99460.59;4955617;28;122897;-83
2024/03/30 04:56:37;;;;;;;4.78;3.63;;;;;;;13.69;59.11;99459.72;4971226;28;114616;-84
2024/03/30 04:59:03;;;;;;;6.07;3.85;;;;;;;13.71;59.24;99455.16;4952757;28;114293;-82
2024/03/30 05:01:29;;;;;;;4.82;3.05;;;;;;;13.71;59.02;99444.53;4968163;28;122949;-83
2024/03/30 05:03:55;;;;;;;5.22;3.20;;;;;;;13.72;59.01;99440.88;4959588;28;122854;-82
2024/03/30 05:06:22;;;;;;;5.10;3.72;;;;;;;13.70;59.14;99437.50;4972981;28;113717;-82
2024/03/30 05:08:48;;;;;;;5.18;3.92;;;;;;;13.71;59.25;99444.53;4975426;28;114138;-82
2024/03/30 05:11:14;;;;;;;5.20;4.10;;;;;;;13.69;59.29;99424.31;4975201;28;123391;-82
2024/03/30 05:13:41;;;;;;;5.20;4.05;;;;;;;13.65;59.30;99429.03;4968906;28;121711;-82
2024/03/30 05:16:08;;;;;;;5.47;4.22;;;;;;;13.61;59.26;99422.28;4970615;28;114171;-82
2024/03/30 05:18:34;;;;;;;6.55;4.20;;;;;;;13.58;59.31;99422.50;4953504;28;113350;-82
2024/03/30 05:21:01;;;;;;;8.02;4.18;;;;;;;13.56;59.50;99424.44;4961339;28;123753;-84
2024/03/30 05:23:30;;;;;;;5.57;4.97;;;;;;;13.55;59.63;99412.13;4963534;28;123057;-87
2024/03/30 05:26:04;;;;;;;6.03;4.10;;;;;;;13.55;59.44;99412.13;4965849;28;113571;-82
2024/03/30 05:28:32;;;;;;;5.50;4.00;;;;;;;13.55;59.52;99407.66;4963213;28;113125;-82
2024/03/30 05:31:02;;;;;;;6.38;3.97;;;;;;;13.55;59.59;99412.13;4957015;28;123315;-82
2024/03/30 05:33:30;;;;;;;5.15;4.18;;;;;;;13.55;59.50;99417.44;4947277;28;123173;-83
2024/03/30 05:35:56;;;;;;;5.63;3.90;;;;;;;13.54;59.63;99407.75;4952007;28;114074;-83
2024/03/30 05:38:23;;;;;;;4.43;3.72;;;;;;;13.52;59.65;99407.06;4960146;28;113569;-82
2024/03/30 05:40:50;;;;;;;4.50;3.70;;;;;;;13.51;59.78;99405.38;4954217;28;122785;-81
2024/03/30 05:43:16;;;;;;;6.35;4.00;;;;;;;13.49;59.73;99402.00;4965429;28;123523;-83
2024/03/30 05:45:48;;;;;;;5.85;4.18;;;;;;;13.47;59.66;99393.25;4971337;28;115487;-82
2024/03/30 05:48:14;;;;;;;5.25;3.90;;;;;;;13.46;59.67;99397.75;4962311;28;113976;-83
2024/03/30 05:50:40;;;;;;;6.85;3.80;;;;;;;13.44;59.79;99389.88;4948871;28;124278;-83
2024/03/30 05:53:06;;;;;;;4.50;3.88;;;;;;;13.43;59.66;99398.00;4963163;28;123989;-83
2024/03/30 05:55:33;;;;;;;4.55;3.75;;;;;;;13.41;59.88;99406.09;4972285;28;113611;-81
2024/03/30 05:58:03;;;;;;;4.80;3.65;;;;;;;13.42;59.91;99396.31;4991221;28;114971;-82
2024/03/30 06:00:30;;;;;;;5.93;3.50;;;;;;;13.42;59.94;99386.50;4952080;28;122629;-84
2024/03/30 06:02:57;;;;;;;4.05;3.30;;;;;;;13.42;59.79;99391.81;4960923;28;123290;-82
2024/03/30 06:05:24;;;;;;;4.28;3.03;;;;;;;13.39;59.80;99381.47;4958700;28;114425;-82
2024/03/30 06:07:51;;;;;;;4.53;3.17;;;;;;;13.37;59.67;99394.03;4963745;28;112942;-82
2024/03/30 06:10:17;;;;;;;4.75;3.17;;;;;;;13.34;59.76;99394.25;4957337;28;122312;-83
2024/03/30 06:12:43;;;;;;;4.88;3.20;;;;;;;13.33;59.85;99389.91;4952858;28;122238;-83
2024/03/30 06:15:09;;;;;;;5.20;3.30;;;;;;;13.34;59.76;99394.25;4973963;28;113072;-83
2024/03/30 06:17:36;;;;;;;5.07;3.42;;;;;;;13.34;59.76;99394.25;4972531;28;113352;-84
2024/03/30 06:20:08;;;;;;;5.72;3.65;;;;;;;13.35;59.78;99390.63;4975398;28;123309;-83
2024/03/30 06:22:35;;;;;;;4.78;3.45;;;;;;;13.37;59.90;99394.03;4972899;28;121909;-83
2024/03/30 06:25:02;;;;;;;5.65;3.50;;;;;;;13.38;59.98;99395.69;4954304;28;112678;-84
2024/03/30 06:27:29;;;;;;;4.50;3.50;;;;;;;13.40;59.60;99404.41;4973584;28;112767;-82
2024/03/30 06:29:55;;;;;;;6.15;4.30;;;;;;;13.40;59.64;99399.09;4973169;28;123792;-82
2024/03/30 06:32:23;;;;;;;5.50;4.32;;;;;;;13.41;59.85;99403.44;4964015;28;123068;-82
2024/03/30 06:34:49;;;;;;;9.20;4.60;;;;;;;13.43;59.93;99404.16;4959490;28;114612;-82
2024/03/30 06:37:17;;;;;;;9.07;5.38;;;;;;;13.48;59.88;99400.28;4970948;28;114775;-83
2024/03/30 06:45:13;;;;;;;8.40;6.10;;;;;;;13.55;59.70;99409.47;4968843;28;113504;-83
2024/03/30 06:47:40;;;;;;;10.32;6.68;;;;;;;13.57;59.88;99407.53;4959957;28;113444;-82
2024/03/30 06:50:06;;;;;;;11.18;6.53;;;;;;;13.57;59.80;99394.22;4977694;28;123333;-83
2024/03/30 06:52:33;;;;;;;11.68;7.03;;;;;;;13.58;59.73;99390.59;4969943;28;122274;-82
2024/03/30 06:54:59;;;;;;;10.77;6.97;;;;;;;13.58;59.92;99385.25;4976297;28;114045;-82
2024/03/30 06:57:26;;;;;;;12.23;7.97;;;;;;;13.60;60.01;99388.66;4974678;28;113623;-81
2024/03/30 06:59:52;;;;;;;12.73;8.18;;;;;;;13.61;60.08;99374.38;4968466;28;122916;-83
2024/03/30 07:02:19;;;;;;;13.57;8.55;;;;;;;13.63;59.95;99383.09;4953924;28;123261;-83
2024/03/30 07:04:45;;;;;;;10.68;7.45;;;;;;;13.65;60.16;99386.47;4952403;28;113529;-84
2024/03/30 07:07:11;;;;;;;10.98;7.88;;;;;;;13.68;60.24;99386.22;4963266;28;112375;-83
2024/03/30 07:09:38;;;;;;;10.05;7.72;;;;;;;13.73;60.26;99381.38;4950148;28;123431;-82
2024/03/30 07:12:04;;;;;;;11.30;7.85;;;;;;;13.77;60.21;99382.81;4958934;28;123471;-83
2024/03/30 07:14:30;;;;;;;11.80;7.30;;;;;;;13.81;60.35;99376.25;4959361;28;112309;-83
2024/03/30 07:16:57;;;;;;;11.93;7.78;;;;;;;13.85;60.35;99373.38;4955254;28;112582;-83
2024/03/30 07:19:23;;;;;;;9.55;7.47;;;;;;;13.89;60.14;99372.13;4971861;28;123137;-83
2024/03/30 07:21:50;;;;;;;11.20;7.25;;;;;;;13.94;60.42;99380.59;4967297;28;123905;-83
2024/03/30 07:24:17;;;;;;;10.23;7.22;;;;;;;13.98;60.42;99382.03;4974153;28;114782;-87
2024/03/30 07:26:44;;;;;;;10.75;8.00;;;;;;;14.04;60.20;99375.34;4950989;28;113067;-83
2024/03/30 07:29:10;;;;;;;11.00;7.60;;;;;;;14.08;60.26;99377.59;4971384;28;122531;-84
2024/03/30 07:31:37;;;;;;;11.07;8.48;;;;;;;14.11;60.35;99374.69;4958149;28;122936;-83
2024/03/30 07:34:03;;;;;;;12.30;9.05;;;;;;;14.11;60.37;99372.03;4954816;28;113412;-86
2024/03/30 07:36:30;;;;;;;10.18;7.90;;;;;;;14.12;60.20;99363.06;4959947;28;113422;-84
2024/03/30 07:38:56;;;;;;;11.10;8.48;;;;;;;14.12;60.37;99357.75;4968356;28;123263;-83
2024/03/30 07:41:22;;;;;;;11.55;8.10;;;;;;;14.11;60.44;99356.06;4977156;28;122936;-84
2024/03/30 07:43:50;;;;;;;11.70;8.05;;;;;;;14.12;60.55;99357.75;4986701;28;113681;-84
2024/03/30 07:46:17;;;;;;;13.05;9.38;;;;;;;14.11;60.59;99358.72;4959620;28;113780;-84
2024/03/30 07:48:43;;;;;;;10.23;8.35;;;;;;;14.14;60.53;99350.47;4968949;28;123047;-84
2024/03/30 07:51:10;;;;;;;10.88;8.20;;;;;;;14.16;60.60;99353.00;4964418;28;122773;-83
2024/03/30 07:53:36;;;;;;;10.32;7.32;;;;;;;14.19;60.58;99352.75;4974794;28;113332;-84
2024/03/30 07:56:03;;;;;;;13.13;8.38;;;;;;;14.24;60.68;99355.03;4969780;28;112567;-85
2024/03/30 07:58:29;;;;;;;11.50;8.27;;;;;;;14.30;60.57;99359.84;4966953;28;122773;-86
2024/03/30 08:00:56;;;;;;;11.77;8.10;;;;;;;14.34;60.63;99350.63;4979794;28;123096;-84
2024/03/30 08:03:22;;;;;;;11.52;8.05;;;;;;;14.36;60.54;99348.66;4970716;28;114237;-83
2024/03/30 08:05:55;;;;;;;17.20;9.88;;;;;;;14.41;60.62;99352.63;4970475;28;113527;-84
2024/03/30 08:08:22;;;;;;;11.85;8.60;;;;;;;14.45;60.55;99342.56;4976477;28;125010;-84
2024/03/30 08:10:48;;;;;;;14.27;8.55;;;;;;;14.51;60.62;99336.69;4980039;28;123612;-87
2024/03/30 08:13:14;;;;;;;9.80;7.60;;;;;;;14.57;60.75;99325.53;4970677;28;114724;-84
2024/03/30 08:15:40;;;;;;;11.13;7.88;;;;;;;14.63;60.56;99321.50;4959420;28;113898;-87
2024/03/30 08:18:06;;;;;;;10.77;7.40;;;;;;;14.69;60.74;99318.34;4976834;28;124055;-82
2024/03/30 08:20:33;;;;;;;11.98;8.25;;;;;;;14.76;60.72;99307.97;4965662;28;122870;-85
2024/03/30 08:22:59;;;;;;;13.02;7.68;;;;;;;14.82;60.95;99307.41;4978732;28;113168;-85
2024/03/30 08:25:25;;;;;;;8.68;6.68;;;;;;;14.88;60.87;99312.25;4955042;28;112220;-84
2024/03/30 08:27:51;;;;;;;10.40;6.97;;;;;;;14.94;60.81;99314.34;4971938;28;124264;-84
2024/03/30 08:30:17;;;;;;;9.27;6.88;;;;;;;15.04;60.88;99300.22;4962434;28;123237;-86
2024/03/30 08:32:44;;;;;;;9.98;7.00;;;;;;;15.13;60.81;99294.06;4960328;28;113138;-84
2024/03/30 08:35:11;;;;;;;10.38;6.70;;;;;;;15.20;60.58;99295.22;4959190;28;112833;-84
2024/03/30 08:37:37;;;;;;;9.90;6.60;;;;;;;15.25;60.53;99298.28;4960572;28;123504;-84
2024/03/30 08:40:04;;;;;;;9.15;6.57;;;;;;;15.31;60.51;99300.44;4962690;28;122305;-85
2024/03/30 08:42:30;;;;;;;8.75;6.38;;;;;;;15.39;60.59;99299.75;4961841;28;113028;-83
2024/03/30 08:44:56;;;;;;;9.90;6.30;;;;;;;15.49;60.49;99294.41;4971058;28;113305;-84
2024/03/30 08:47:24;;;;;;;9.18;6.00;;;;;;;15.55;60.10;99296.53;4961630;28;98495;-84
2024/03/30 08:49:50;;;;;;;12.10;6.90;;;;;;;15.64;60.33;99301.03;4964843;28;123097;-84
2024/03/30 08:52:16;;;;;;;9.82;6.65;;;;;;;15.74;60.43;99298.38;4971823;28;114549;-90
2024/03/30 08:54:42;;;;;;;9.50;6.55;;;;;;;15.85;60.44;99294.75;4974653;28;113780;-84
2024/03/30 08:57:08;;;;;;;10.77;7.50;;;;;;;15.94;60.40;99285.88;4962239;28;122426;-84
2024/03/30 08:59:34;;;;;;;10.57;6.65;;;;;;;16.05;60.42;99280.38;4951327;28;122749;-87
2024/03/30 09:02:00;;;;;;;10.73;7.28;;;;;;;16.15;60.15;99291.88;4973337;28;115030;-85
2024/03/30 09:04:28;;;;;;;11.73;7.25;;;;;;;16.26;59.87;99287.38;4969899;28;113789;-86
2024/03/30 09:06:54;;;;;;;13.30;7.20;;;;;;;16.36;59.99;99277.50;4961867;28;123573;-84
2024/03/30 09:09:20;;;;;;;16.67;6.90;;;;;;;16.42;59.63;99266.22;4959217;28;123960;-86
2024/03/30 09:11:47;;;;;;;11.98;6.82;;;;;;;16.47;59.52;99263.13;4950403;28;113267;-85
2024/03/30 09:14:13;;;;;;;13.35;6.90;;;;;;;16.55;59.54;99268.56;4953992;28;113241;-86
2024/03/30 09:16:39;;;;;;;11.65;6.50;;;;;;;16.67;59.40;99258.53;4976676;28;124476;-86
2024/03/30 09:19:05;;;;;;;11.25;6.22;;;;;;;16.76;59.19;99280.88;4965909;28;123679;-90
2024/03/30 09:21:31;;;;;;;13.68;5.93;;;;;;;16.81;59.15;99270.59;4950633;28;114013;-85
2024/03/30 09:23:57;;;;;;;12.73;6.43;;;;;;;16.86;59.03;99289.75;4950370;28;113011;-84
2024/03/30 09:26:23;;;;;;;17.33;6.72;;;;;;;16.92;58.96;99295.34;4964720;28;124205;-86
2024/03/30 09:28:49;;;;;;;13.35;5.82;;;;;;;16.98;58.59;99293.06;4977987;28;122574;-85
2024/03/30 09:31:16;;;;;;;13.90;6.55;;;;;;;17.02;58.85;99294.44;4966876;28;114820;-85
2024/03/30 09:33:42;;;;;;;17.38;6.75;;;;;;;17.09;58.70;99300.88;4983789;28;114669;-85
2024/03/30 09:36:11;;;;;;;13.05;6.63;;;;;;;17.17;58.78;99303.66;4966021;28;123683;-84
2024/03/30 09:38:37;;;;;;;14.75;6.72;;;;;;;17.26;58.49;99297.41;4954933;28;123450;-86
2024/03/30 09:41:04;;;;;;;14.32;6.65;;;;;;;17.38;58.68;99291.84;4977867;28;113735;-85
2024/03/30 09:43:31;;;;;;;17.27;6.63;;;;;;;17.46;58.46;99303.47;4977485;28;113969;-85
2024/03/30 09:45:58;;;;;;;16.55;6.78;;;;;;;17.56;58.45;99287.34;4976331;28;123876;-85
2024/03/30 09:48:27;;;;;;;20.30;6.90;;;;;;;17.66;58.33;99290.78;4974273;28;123810;-85
2024/03/30 09:50:54;;;;;;;20.83;6.32;;;;;;;17.75;58.17;99290.88;4985320;28;114781;-84
2024/03/30 09:53:21;;;;;;;18.77;6.40;;;;;;;17.82;57.91;99294.59;4967418;28;114876;-85
2024/03/30 09:55:48;;;;;;;22.52;6.60;;;;;;;17.91;57.66;99296.38;4951221;28;123663;-86
2024/03/30 09:58:15;;;;;;;14.80;5.93;;;;;;;17.99;57.92;99299.16;4949496;28;123165;-86
2024/03/30 10:00:43;;;;;;;18.90;6.28;;;;;;;18.07;57.63;99307.25;4970069;28;114614;-86
2024/03/30 10:03:09;;;;;;;21.20;5.97;;;;;;;18.14;57.57;99309.28;4964228;28;113613;-82
2024/03/30 10:05:40;;;;;;;18.73;5.60;;;;;;;18.20;57.29;99311.38;4954294;28;123982;-83
2024/03/30 10:08:08;;;;;;;20.00;5.40;;;;;;;18.25;56.88;99309.03;4954831;28;123245;-83
2024/03/30 10:10:34;;;;;;;19.13;5.35;;;;;;;18.30;57.17;99309.41;4973657;28;113793;-82
2024/03/30 10:13:04;;;;;;;16.40;5.30;;;;;;;18.32;56.67;99299.38;4962105;28;113841;-82
2024/03/30 10:15:46;;;;;;;16.75;5.47;;;;;;;18.36;56.59;99300.75;4954444;28;123438;-84
2024/03/30 10:18:13;;;;;;;17.50;5.55;;;;;;;18.39;56.29;99295.09;4965035;28;123358;-83
2024/03/30 10:20:39;;;;;;;19.65;5.78;;;;;;;18.42;56.29;99299.28;4978597;28;112973;-83
2024/03/30 10:23:05;;;;;;;27.98;5.78;;;;;;;18.44;56.35;99286.56;4967592;28;112539;-84
2024/03/30 10:25:34;;;;;;;16.52;5.53;;;;;;;18.48;56.10;99287.94;4959596;28;122102;-84
2024/03/30 10:28:01;;;;;;;14.82;4.93;;;;;;;18.51;56.01;99286.78;4957648;28;122895;-84
2024/03/30 10:30:27;;;;;;;18.10;5.00;;;;;;;18.53;55.92;99263.31;4950899;28;113788;-85
2024/03/30 10:32:54;;;;;;;18.80;5.95;;;;;;;18.53;55.79;99258.78;4980447;28;113242;-83
2024/03/30 10:35:21;;;;;;;23.00;6.50;;;;;;;18.56;55.77;99253.13;4955804;28;122496;-86
2024/03/30 10:37:47;;;;;;;21.08;6.57;;;;;;;18.57;55.63;99249.47;4967778;28;124408;-84
2024/03/30 10:40:15;;;;;;;24.38;6.80;;;;;;;18.60;55.86;99253.66;4969846;28;115594;-84
2024/03/30 10:42:41;;;;;;;23.17;6.90;;;;;;;18.65;55.63;99256.69;4970606;28;114921;-83
2024/03/30 10:45:08;;;;;;;16.83;6.28;;;;;;;18.72;55.84;99263.06;4966477;28;124167;-84
2024/03/30 10:47:36;;;;;;;17.92;6.13;;;;;;;18.79;55.65;99253.38;4969612;28;123269;-84
2024/03/30 10:50:03;;;;;;;22.73;6.85;;;;;;;18.85;55.27;99251.94;4971412;28;113538;-83
2024/03/30 10:52:30;;;;;;;17.05;6.68;;;;;;;18.91;55.44;99255.81;4974344;28;113534;-82
2024/03/30 10:54:57;;;;;;;18.25;6.97;;;;;;;18.97;55.47;99261.38;4968228;28;123016;-84
2024/03/30 10:57:25;;;;;;;18.17;6.25;;;;;;;19.03;55.29;99270.63;4976782;28;123725;-84
2024/03/30 10:59:52;;;;;;;15.02;5.05;;;;;;;19.08;55.13;99268.31;4962656;28;114814;-86
2024/03/30 11:02:22;;;;;;;17.65;5.90;;;;;;;19.10;55.11;99277.03;4950173;28;112927;-84
2024/03/30 11:04:52;;;;;;;24.02;5.78;;;;;;;19.17;55.13;99287.94;4974112;28;124217;-83
2024/03/30 11:07:19;;;;;;;18.90;5.78;;;;;;;19.21;55.34;99295.53;4971404;28;122154;-86
2024/03/30 11:09:46;;;;;;;24.00;5.93;;;;;;;19.24;55.27;99289.81;4984283;28;113994;-84
2024/03/30 11:12:15;;;;;;;22.25;6.07;;;;;;;19.24;54.99;99300.53;4971037;28;112573;-84
2024/03/30 11:14:43;;;;;;;19.00;5.97;;;;;;;19.25;54.95;99312.13;4968615;28;124540;-84
2024/03/30 11:17:20;;;;;;;16.48;6.30;;;;;;;19.24;54.75;99310.44;4948350;28;123340;-85
2024/03/30 11:20:11;;;;;;;21.73;6.93;;;;;;;19.22;54.76;99324.03;4971200;28;113959;-83
2024/03/30 11:23:03;;;;;;;21.45;6.65;;;;;;;19.23;54.81;99323.03;4979109;28;113959;-84
2024/03/30 11:25:30;;;;;;;18.05;6.72;;;;;;;19.23;54.89;99336.47;4982978;28;124007;-85
2024/03/30 11:28:03;;;;;;;18.85;6.45;;;;;;;19.23;54.87;99339.13;4991714;28;123167;-85